sensor_id;sensor_type;location;lat;lon;timestamp;temperature;humidity
21214;DHT22;10764;50.850;2.904;2023-03-16T00:01:07;20.60;50.30
21214;DHT22;10764;50.850;2.904;2023-03-16T00:03:34;20.80;50.20
21214;DHT22;10764;50.850;2.904;2023-03-16T00:06:02;18.40;49.00
21214;DHT22;10764;50.850;2.904;2023-03-16T00:08:29;18.50;49.00
21214;DHT22;10764;50.850;2.904;2023-03-16T00:10:56;19.80;50.00
21214;DHT22;10764;50.850;2.904;2023-03-16T00:13:23;18.40;49.10
21214;DHT22;10764;50.850;2.904;2023-03-16T00:15:52;20.30;50.10
21214;DHT22;10764;50.850;2.904;2023-03-16T00:18:20;18.40;49.00
21214;DHT22;10764;50.850;2.904;2023-03-16T00:20:51;21.10;50.30
21214;DHT22;10764;50.850;2.904;2023-03-16T00:23:18;21.30;50.40
21214;DHT22;10764;50.850;2.904;2023-03-16T00:25:45;22.30;51.40
21214;DHT22;10764;50.850;2.904;2023-03-16T00:28:12;20.80;50.80
21214;DHT22;10764;50.850;2.904;2023-03-16T00:30:39;19.10;49.70
21214;DHT22;10764;50.850;2.904;2023-03-16T00:33:06;20.70;50.60
21214;DHT22;10764;50.850;2.904;2023-03-16T00:35:33;20.30;50.30
21214;DHT22;10764;50.850;2.904;2023-03-16T00:38:00;20.30;50.40
21214;DHT22;10764;50.850;2.904;2023-03-16T00:40:27;22.40;51.40
21214;DHT22;10764;50.850;2.904;2023-03-16T00:42:54;22.00;51.10
21214;DHT22;10764;50.850;2.904;2023-03-16T00:45:21;19.80;50.00
21214;DHT22;10764;50.850;2.904;2023-03-16T00:47:49;19.60;49.80
21214;DHT22;10764;50.850;2.904;2023-03-16T00:50:16;20.20;50.20
21214;DHT22;10764;50.850;2.904;2023-03-16T00:52:42;18.40;49.30
21214;DHT22;10764;50.850;2.904;2023-03-16T00:55:09;20.50;50.60
21214;DHT22;10764;50.850;2.904;2023-03-16T00:57:36;19.70;50.20
21214;DHT22;10764;50.850;2.904;2023-03-16T01:00:03;21.50;51.10
21214;DHT22;10764;50.850;2.904;2023-03-16T01:02:38;18.40;49.40
21214;DHT22;10764;50.850;2.904;2023-03-16T01:05:06;21.50;51.00
21214;DHT22;10764;50.850;2.904;2023-03-16T01:07:32;18.40;49.50
21214;DHT22;10764;50.850;2.904;2023-03-16T01:10:03;21.70;51.30
21214;DHT22;10764;50.850;2.904;2023-03-16T01:12:29;18.40;49.90
21214;DHT22;10764;50.850;2.904;2023-03-16T01:14:57;19.70;50.50
21214;DHT22;10764;50.850;2.904;2023-03-16T01:17:25;20.00;50.40
21214;DHT22;10764;50.850;2.904;2023-03-16T01:19:52;18.80;49.80
21214;DHT22;10764;50.850;2.904;2023-03-16T01:22:19;18.40;49.80
21214;DHT22;10764;50.850;2.904;2023-03-16T01:24:47;21.30;51.20
21214;DHT22;10764;50.850;2.904;2023-03-16T01:27:13;21.10;51.50
21214;DHT22;10764;50.850;2.904;2023-03-16T01:29:40;21.60;51.50
21214;DHT22;10764;50.850;2.904;2023-03-16T01:32:09;20.60;51.50
21214;DHT22;10764;50.850;2.904;2023-03-16T01:34:37;18.40;49.90
21214;DHT22;10764;50.850;2.904;2023-03-16T01:37:05;20.20;50.90
21214;DHT22;10764;50.850;2.904;2023-03-16T01:39:49;21.30;51.50
21214;DHT22;10764;50.850;2.904;2023-03-16T01:42:16;21.40;51.50
21214;DHT22;10764;50.850;2.904;2023-03-16T01:47:55;18.40;49.80
21214;DHT22;10764;50.850;2.904;2023-03-16T01:50:24;20.20;50.90
21214;DHT22;10764;50.850;2.904;2023-03-16T01:52:53;20.50;51.10
21214;DHT22;10764;50.850;2.904;2023-03-16T01:55:20;15.20;48.50
21214;DHT22;10764;50.850;2.904;2023-03-16T01:57:48;18.40;50.00
21214;DHT22;10764;50.850;2.904;2023-03-16T02:00:18;21.10;51.30
21214;DHT22;10764;50.850;2.904;2023-03-16T02:03:04;18.40;50.00
21214;DHT22;10764;50.850;2.904;2023-03-16T02:06:07;19.20;50.40
21214;DHT22;10764;50.850;2.904;2023-03-16T02:08:36;18.40;49.90
21214;DHT22;10764;50.850;2.904;2023-03-16T02:11:06;19.40;50.50
21214;DHT22;10764;50.850;2.904;2023-03-16T02:13:51;19.20;50.50
21214;DHT22;10764;50.850;2.904;2023-03-16T02:16:20;21.20;51.40
21214;DHT22;10764;50.850;2.904;2023-03-16T02:18:49;19.50;50.70
21214;DHT22;10764;50.850;2.904;2023-03-16T02:24:03;18.40;50.10
21214;DHT22;10764;50.850;2.904;2023-03-16T02:26:44;18.40;50.10
21214;DHT22;10764;50.850;2.904;2023-03-16T02:29:52;18.40;50.10
21214;DHT22;10764;50.850;2.904;2023-03-16T02:32:22;18.40;50.10
21214;DHT22;10764;50.850;2.904;2023-03-16T02:34:50;19.30;50.60
21214;DHT22;10764;50.850;2.904;2023-03-16T02:37:17;21.30;51.70
21214;DHT22;10764;50.850;2.904;2023-03-16T02:39:44;18.40;50.40
21214;DHT22;10764;50.850;2.904;2023-03-16T02:42:18;18.40;50.30
21214;DHT22;10764;50.850;2.904;2023-03-16T02:44:49;21.20;51.50
21214;DHT22;10764;50.850;2.904;2023-03-16T02:47:37;20.50;51.20
21214;DHT22;10764;50.850;2.904;2023-03-16T02:50:07;18.40;50.20
21214;DHT22;10764;50.850;2.904;2023-03-16T02:52:35;18.40;50.20
21214;DHT22;10764;50.850;2.904;2023-03-16T02:55:05;18.40;50.20
21214;DHT22;10764;50.850;2.904;2023-03-16T02:57:32;18.40;50.20
21214;DHT22;10764;50.850;2.904;2023-03-16T03:00:05;20.20;51.20
21214;DHT22;10764;50.850;2.904;2023-03-16T03:02:38;18.40;50.20
21214;DHT22;10764;50.850;2.904;2023-03-16T03:05:05;19.30;50.90
21214;DHT22;10764;50.850;2.904;2023-03-16T03:07:32;18.40;50.40
21214;DHT22;10764;50.850;2.904;2023-03-16T03:10:05;21.80;52.00
21214;DHT22;10764;50.850;2.904;2023-03-16T03:12:33;18.40;50.30
21214;DHT22;10764;50.850;2.904;2023-03-16T03:15:03;18.60;50.50
21214;DHT22;10764;50.850;2.904;2023-03-16T03:17:37;18.40;50.40
21214;DHT22;10764;50.850;2.904;2023-03-16T03:20:04;20.80;51.60
21214;DHT22;10764;50.850;2.904;2023-03-16T03:22:39;18.40;50.40
21214;DHT22;10764;50.850;2.904;2023-03-16T03:25:06;18.40;50.40
21214;DHT22;10764;50.850;2.904;2023-03-16T03:27:34;18.40;50.40
21214;DHT22;10764;50.850;2.904;2023-03-16T03:30:05;18.80;50.60
21214;DHT22;10764;50.850;2.904;2023-03-16T03:32:31;18.40;50.60
21214;DHT22;10764;50.850;2.904;2023-03-16T03:34:58;18.50;50.60
21214;DHT22;10764;50.850;2.904;2023-03-16T03:37:25;21.30;52.00
21214;DHT22;10764;50.850;2.904;2023-03-16T03:39:52;20.90;51.90
21214;DHT22;10764;50.850;2.904;2023-03-16T03:42:19;21.10;51.90
21214;DHT22;10764;50.850;2.904;2023-03-16T03:44:50;18.40;50.70
21214;DHT22;10764;50.850;2.904;2023-03-16T03:47:18;19.20;50.60
21214;DHT22;10764;50.850;2.904;2023-03-16T03:49:45;18.40;50.50
21214;DHT22;10764;50.850;2.904;2023-03-16T03:52:12;19.40;51.10
21214;DHT22;10764;50.850;2.904;2023-03-16T03:54:39;21.10;52.00
21214;DHT22;10764;50.850;2.904;2023-03-16T03:57:12;18.30;50.60
21214;DHT22;10764;50.850;2.904;2023-03-16T03:59:39;21.00;52.00
21214;DHT22;10764;50.850;2.904;2023-03-16T04:02:26;20.40;51.50
21214;DHT22;10764;50.850;2.904;2023-03-16T04:04:54;19.30;51.00
21214;DHT22;10764;50.850;2.904;2023-03-16T04:07:21;18.30;49.70
21214;DHT22;10764;50.850;2.904;2023-03-16T04:09:52;19.70;51.60
21214;DHT22;10764;50.850;2.904;2023-03-16T04:12:32;19.40;51.30
21214;DHT22;10764;50.850;2.904;2023-03-16T04:14:59;18.80;50.80
21214;DHT22;10764;50.850;2.904;2023-03-16T04:17:32;21.20;51.80
21214;DHT22;10764;50.850;2.904;2023-03-16T04:20:02;18.40;50.50
21214;DHT22;10764;50.850;2.904;2023-03-16T04:22:32;18.40;50.50
21214;DHT22;10764;50.850;2.904;2023-03-16T04:24:59;20.40;51.60
21214;DHT22;10764;50.850;2.904;2023-03-16T04:27:28;19.50;51.00
21214;DHT22;10764;50.850;2.904;2023-03-16T04:29:56;18.80;50.80
21214;DHT22;10764;50.850;2.904;2023-03-16T04:32:26;20.50;51.70
21214;DHT22;10764;50.850;2.904;2023-03-16T04:34:54;18.70;50.60
21214;DHT22;10764;50.850;2.904;2023-03-16T04:37:29;20.50;51.50
21214;DHT22;10764;50.850;2.904;2023-03-16T04:39:56;21.70;52.10
21214;DHT22;10764;50.850;2.904;2023-03-16T04:42:23;19.10;50.90
21214;DHT22;10764;50.850;2.904;2023-03-16T04:44:49;21.60;52.00
21214;DHT22;10764;50.850;2.904;2023-03-16T04:47:17;21.30;51.90
21214;DHT22;10764;50.850;2.904;2023-03-16T04:49:44;18.70;50.50
21214;DHT22;10764;50.850;2.904;2023-03-16T04:52:12;21.50;51.90
21214;DHT22;10764;50.850;2.904;2023-03-16T04:54:39;22.00;52.30
21214;DHT22;10764;50.850;2.904;2023-03-16T04:57:07;20.70;51.60
21214;DHT22;10764;50.850;2.904;2023-03-16T04:59:41;22.40;52.50
21214;DHT22;10764;50.850;2.904;2023-03-16T05:02:16;21.70;52.00
21214;DHT22;10764;50.850;2.904;2023-03-16T05:04:45;19.70;51.00
21214;DHT22;10764;50.850;2.904;2023-03-16T05:07:12;18.30;50.40
21214;DHT22;10764;50.850;2.904;2023-03-16T05:09:42;18.30;50.60
21214;DHT22;10764;50.850;2.904;2023-03-16T05:12:09;20.90;51.60
21214;DHT22;10764;50.850;2.904;2023-03-16T05:14:37;18.40;50.50
21214;DHT22;10764;50.850;2.904;2023-03-16T05:17:16;18.40;50.50
21214;DHT22;10764;50.850;2.904;2023-03-16T05:19:44;21.40;52.10
21214;DHT22;10764;50.850;2.904;2023-03-16T05:22:12;19.50;51.50
21214;DHT22;10764;50.850;2.904;2023-03-16T05:24:52;21.20;52.10
21214;DHT22;10764;50.850;2.904;2023-03-16T05:27:19;21.70;52.70
21214;DHT22;10764;50.850;2.904;2023-03-16T05:29:46;19.60;51.50
21214;DHT22;10764;50.850;2.904;2023-03-16T05:32:13;20.70;52.40
21214;DHT22;10764;50.850;2.904;2023-03-16T05:34:43;19.30;51.30
21214;DHT22;10764;50.850;2.904;2023-03-16T05:37:10;19.40;51.40
21214;DHT22;10764;50.850;2.904;2023-03-16T05:39:37;18.40;50.90
21214;DHT22;10764;50.850;2.904;2023-03-16T05:42:04;18.40;51.10
21214;DHT22;10764;50.850;2.904;2023-03-16T05:44:41;18.40;51.00
21214;DHT22;10764;50.850;2.904;2023-03-16T05:47:15;21.50;52.50
21214;DHT22;10764;50.850;2.904;2023-03-16T05:49:47;19.20;51.50
21214;DHT22;10764;50.850;2.904;2023-03-16T05:52:44;21.30;52.50
21214;DHT22;10764;50.850;2.904;2023-03-16T05:55:19;20.40;52.00
21214;DHT22;10764;50.850;2.904;2023-03-16T05:57:51;21.60;52.70
21214;DHT22;10764;50.850;2.904;2023-03-16T06:00:19;21.00;52.40
21214;DHT22;10764;50.850;2.904;2023-03-16T06:02:54;18.50;51.20
21214;DHT22;10764;50.850;2.904;2023-03-16T06:05:25;22.00;53.20
21214;DHT22;10764;50.850;2.904;2023-03-16T06:07:54;18.50;51.30
21214;DHT22;10764;50.850;2.904;2023-03-16T06:10:22;19.00;51.50
21214;DHT22;10764;50.850;2.904;2023-03-16T06:12:49;18.80;51.40
21214;DHT22;10764;50.850;2.904;2023-03-16T06:15:18;19.70;51.90
21214;DHT22;10764;50.850;2.904;2023-03-16T06:17:46;18.50;51.30
21214;DHT22;10764;50.850;2.904;2023-03-16T06:20:14;19.80;52.10
21214;DHT22;10764;50.850;2.904;2023-03-16T06:22:43;19.50;51.80
21214;DHT22;10764;50.850;2.904;2023-03-16T06:25:11;18.60;51.30
21214;DHT22;10764;50.850;2.904;2023-03-16T06:27:40;20.20;52.60
21214;DHT22;10764;50.850;2.904;2023-03-16T06:30:12;21.70;53.20
21214;DHT22;10764;50.850;2.904;2023-03-16T06:32:39;18.50;51.30
21214;DHT22;10764;50.850;2.904;2023-03-16T06:35:08;19.50;51.70
21214;DHT22;10764;50.850;2.904;2023-03-16T06:37:38;21.40;52.70
21214;DHT22;10764;50.850;2.904;2023-03-16T06:40:20;20.50;53.00
21214;DHT22;10764;50.850;2.904;2023-03-16T06:42:48;22.50;53.10
21214;DHT22;10764;50.850;2.904;2023-03-16T06:45:17;20.10;51.90
21214;DHT22;10764;50.850;2.904;2023-03-16T06:47:48;21.30;52.50
21214;DHT22;10764;50.850;2.904;2023-03-16T06:50:15;21.50;52.40
21214;DHT22;10764;50.850;2.904;2023-03-16T06:52:42;18.50;50.70
21214;DHT22;10764;50.850;2.904;2023-03-16T06:55:09;19.70;51.30
21214;DHT22;10764;50.850;2.904;2023-03-16T06:57:41;21.20;51.90
21214;DHT22;10764;50.850;2.904;2023-03-16T07:00:09;19.50;51.70
21214;DHT22;10764;50.850;2.904;2023-03-16T07:02:40;18.50;50.70
21214;DHT22;10764;50.850;2.904;2023-03-16T07:05:09;21.10;52.20
21214;DHT22;10764;50.850;2.904;2023-03-16T07:07:42;19.60;51.70
21214;DHT22;10764;50.850;2.904;2023-03-16T07:10:11;18.50;51.40
21214;DHT22;10764;50.850;2.904;2023-03-16T07:12:39;20.60;52.40
21214;DHT22;10764;50.850;2.904;2023-03-16T07:15:06;19.70;52.20
21214;DHT22;10764;50.850;2.904;2023-03-16T07:17:34;18.60;52.00
21214;DHT22;10764;50.850;2.904;2023-03-16T07:20:04;21.40;53.20
21214;DHT22;10764;50.850;2.904;2023-03-16T07:22:32;18.60;52.00
21214;DHT22;10764;50.850;2.904;2023-03-16T07:24:59;20.90;54.20
21214;DHT22;10764;50.850;2.904;2023-03-16T07:27:27;21.70;54.50
21214;DHT22;10764;50.850;2.904;2023-03-16T07:29:56;19.40;54.00
21214;DHT22;10764;50.850;2.904;2023-03-16T07:32:23;20.60;54.50
21214;DHT22;10764;50.850;2.904;2023-03-16T07:34:50;18.60;53.80
21214;DHT22;10764;50.850;2.904;2023-03-16T07:37:17;20.10;55.10
21214;DHT22;10764;50.850;2.904;2023-03-16T07:39:53;18.70;53.80
21214;DHT22;10764;50.850;2.904;2023-03-16T07:42:20;20.00;55.10
21214;DHT22;10764;50.850;2.904;2023-03-16T07:45:08;20.60;55.50
21214;DHT22;10764;50.850;2.904;2023-03-16T07:47:35;18.60;53.50
21214;DHT22;10764;50.850;2.904;2023-03-16T07:50:15;21.50;55.50
21214;DHT22;10764;50.850;2.904;2023-03-16T07:52:47;18.70;54.10
21214;DHT22;10764;50.850;2.904;2023-03-16T07:55:14;20.10;54.20
21214;DHT22;10764;50.850;2.904;2023-03-16T07:57:42;18.60;52.20
21214;DHT22;10764;50.850;2.904;2023-03-16T08:00:16;21.40;54.70
21214;DHT22;10764;50.850;2.904;2023-03-16T08:02:46;18.60;53.10
21214;DHT22;10764;50.850;2.904;2023-03-16T08:05:13;21.10;53.90
21214;DHT22;10764;50.850;2.904;2023-03-16T08:07:45;18.50;52.50
21214;DHT22;10764;50.850;2.904;2023-03-16T08:10:17;22.30;54.00
21214;DHT22;10764;50.850;2.904;2023-03-16T08:12:58;18.60;52.10
21214;DHT22;10764;50.850;2.904;2023-03-16T08:15:25;20.00;52.90
21214;DHT22;10764;50.850;2.904;2023-03-16T08:17:59;20.70;53.20
21214;DHT22;10764;50.850;2.904;2023-03-16T08:20:28;21.00;54.10
21214;DHT22;10764;50.850;2.904;2023-03-16T08:22:55;18.70;52.20
21214;DHT22;10764;50.850;2.904;2023-03-16T08:25:26;22.00;53.60
21214;DHT22;10764;50.850;2.904;2023-03-16T08:28:01;21.00;53.00
21214;DHT22;10764;50.850;2.904;2023-03-16T08:30:28;18.60;51.70
21214;DHT22;10764;50.850;2.904;2023-03-16T08:33:31;20.90;52.80
21214;DHT22;10764;50.850;2.904;2023-03-16T08:35:59;20.90;52.80
21214;DHT22;10764;50.850;2.904;2023-03-16T08:38:26;20.90;52.70
21214;DHT22;10764;50.850;2.904;2023-03-16T08:41:00;21.10;52.70
21214;DHT22;10764;50.850;2.904;2023-03-16T08:43:27;20.90;52.90
21214;DHT22;10764;50.850;2.904;2023-03-16T08:45:54;21.30;52.60
21214;DHT22;10764;50.850;2.904;2023-03-16T08:48:25;21.60;52.70
21214;DHT22;10764;50.850;2.904;2023-03-16T08:50:52;19.80;51.70
21214;DHT22;10764;50.850;2.904;2023-03-16T08:53:20;21.70;52.80
21214;DHT22;10764;50.850;2.904;2023-03-16T08:55:47;18.90;51.10
21214;DHT22;10764;50.850;2.904;2023-03-16T08:58:14;20.80;52.00
21214;DHT22;10764;50.850;2.904;2023-03-16T09:00:40;20.80;52.10
21214;DHT22;10764;50.850;2.904;2023-03-16T09:03:11;20.80;51.80
21214;DHT22;10764;50.850;2.904;2023-03-16T09:05:37;19.90;51.40
21214;DHT22;10764;50.850;2.904;2023-03-16T09:08:04;21.60;52.20
21214;DHT22;10764;50.850;2.904;2023-03-16T09:10:31;18.80;50.60
21214;DHT22;10764;50.850;2.904;2023-03-16T09:12:59;18.90;51.00
21214;DHT22;10764;50.850;2.904;2023-03-16T09:15:27;21.10;51.80
21214;DHT22;10764;50.850;2.904;2023-03-16T09:17:54;19.70;50.90
21214;DHT22;10764;50.850;2.904;2023-03-16T09:20:22;21.50;51.80
21214;DHT22;10764;50.850;2.904;2023-03-16T09:22:56;21.20;51.50
21214;DHT22;10764;50.850;2.904;2023-03-16T09:25:23;19.80;50.90
21214;DHT22;10764;50.850;2.904;2023-03-16T09:27:54;18.80;50.20
21214;DHT22;10764;50.850;2.904;2023-03-16T09:30:21;20.10;50.90
21214;DHT22;10764;50.850;2.904;2023-03-16T09:32:48;19.70;50.60
21214;DHT22;10764;50.850;2.904;2023-03-16T09:35:16;18.80;50.10
21214;DHT22;10764;50.850;2.904;2023-03-16T09:37:43;18.80;50.10
21214;DHT22;10764;50.850;2.904;2023-03-16T09:40:30;18.90;50.10
21214;DHT22;10764;50.850;2.904;2023-03-16T09:48:27;18.90;50.00
21214;DHT22;10764;50.850;2.904;2023-03-16T09:50:57;18.90;49.80
21214;DHT22;10764;50.850;2.904;2023-03-16T09:53:29;18.90;49.80
21214;DHT22;10764;50.850;2.904;2023-03-16T09:56:09;18.90;49.70
21214;DHT22;10764;50.850;2.904;2023-03-16T09:58:37;18.90;49.80
21214;DHT22;10764;50.850;2.904;2023-03-16T10:06:46;18.90;49.50
21214;DHT22;10764;50.850;2.904;2023-03-16T10:09:36;19.00;49.50
21214;DHT22;10764;50.850;2.904;2023-03-16T10:12:06;19.00;49.50
21214;DHT22;10764;50.850;2.904;2023-03-16T10:17:20;19.00;49.90
21214;DHT22;10764;50.850;2.904;2023-03-16T10:19:51;19.00;49.40
21214;DHT22;10764;50.850;2.904;2023-03-16T10:22:22;19.00;49.40
21214;DHT22;10764;50.850;2.904;2023-03-16T10:27:32;19.00;49.30
21214;DHT22;10764;50.850;2.904;2023-03-16T10:30:01;19.00;49.30
21214;DHT22;10764;50.850;2.904;2023-03-16T10:32:32;19.00;49.40
21214;DHT22;10764;50.850;2.904;2023-03-16T10:37:51;19.00;49.60
21214;DHT22;10764;50.850;2.904;2023-03-16T10:40:18;19.00;49.30
21214;DHT22;10764;50.850;2.904;2023-03-16T10:42:46;19.00;49.40
21214;DHT22;10764;50.850;2.904;2023-03-16T10:45:30;19.00;49.40
21214;DHT22;10764;50.850;2.904;2023-03-16T10:48:24;19.00;49.20
21214;DHT22;10764;50.850;2.904;2023-03-16T10:50:54;19.00;49.30
21214;DHT22;10764;50.850;2.904;2023-03-16T10:53:27;19.00;49.10
21214;DHT22;10764;50.850;2.904;2023-03-16T10:56:00;19.00;49.10
21214;DHT22;10764;50.850;2.904;2023-03-16T10:58:33;19.00;49.00
21214;DHT22;10764;50.850;2.904;2023-03-16T11:01:01;19.00;49.00
21214;DHT22;10764;50.850;2.904;2023-03-16T11:03:38;19.00;49.20
21214;DHT22;10764;50.850;2.904;2023-03-16T11:06:26;19.00;49.00
21214;DHT22;10764;50.850;2.904;2023-03-16T11:09:20;19.00;49.00
21214;DHT22;10764;50.850;2.904;2023-03-16T11:11:49;20.80;50.30
21214;DHT22;10764;50.850;2.904;2023-03-16T11:14:21;19.00;48.90
21214;DHT22;10764;50.850;2.904;2023-03-16T11:16:55;19.00;48.90
21214;DHT22;10764;50.850;2.904;2023-03-16T11:19:34;19.00;48.90
21214;DHT22;10764;50.850;2.904;2023-03-16T11:22:15;19.00;48.90
21214;DHT22;10764;50.850;2.904;2023-03-16T11:25:03;19.00;49.00
21214;DHT22;10764;50.850;2.904;2023-03-16T11:30:41;19.00;48.80
21214;DHT22;10764;50.850;2.904;2023-03-16T11:33:12;19.00;48.80
21214;DHT22;10764;50.850;2.904;2023-03-16T11:35:46;19.00;48.90
21214;DHT22;10764;50.850;2.904;2023-03-16T11:38:36;19.00;48.80
21214;DHT22;10764;50.850;2.904;2023-03-16T11:41:17;19.10;48.80
21214;DHT22;10764;50.850;2.904;2023-03-16T11:43:55;19.00;48.80
21214;DHT22;10764;50.850;2.904;2023-03-16T11:46:40;19.00;48.70
21214;DHT22;10764;50.850;2.904;2023-03-16T11:49:30;19.00;48.70
21214;DHT22;10764;50.850;2.904;2023-03-16T11:55:38;19.00;48.60
21214;DHT22;10764;50.850;2.904;2023-03-16T11:58:34;19.00;48.60
21214;DHT22;10764;50.850;2.904;2023-03-16T12:01:20;19.00;48.60
21214;DHT22;10764;50.850;2.904;2023-03-16T12:17:43;19.00;48.50
21214;DHT22;10764;50.850;2.904;2023-03-16T12:20:17;19.00;48.50
21214;DHT22;10764;50.850;2.904;2023-03-16T12:23:05;19.00;48.60
21214;DHT22;10764;50.850;2.904;2023-03-16T12:25:38;19.00;48.60
21214;DHT22;10764;50.850;2.904;2023-03-16T12:28:13;19.00;48.70
21214;DHT22;10764;50.850;2.904;2023-03-16T12:33:44;19.00;48.50
21214;DHT22;10764;50.850;2.904;2023-03-16T12:36:49;19.00;48.50
21214;DHT22;10764;50.850;2.904;2023-03-16T12:44:46;19.10;48.50
21214;DHT22;10764;50.850;2.904;2023-03-16T12:50:20;19.10;48.50
21214;DHT22;10764;50.850;2.904;2023-03-16T12:52:50;19.10;48.60
21214;DHT22;10764;50.850;2.904;2023-03-16T12:55:25;19.10;48.50
21214;DHT22;10764;50.850;2.904;2023-03-16T12:58:04;19.10;48.50
21214;DHT22;10764;50.850;2.904;2023-03-16T13:00:36;19.00;48.50
21214;DHT22;10764;50.850;2.904;2023-03-16T13:03:10;19.00;48.70
21214;DHT22;10764;50.850;2.904;2023-03-16T13:05:44;19.10;48.40
21214;DHT22;10764;50.850;2.904;2023-03-16T13:08:15;19.10;48.40
21214;DHT22;10764;50.850;2.904;2023-03-16T13:11:02;19.10;48.50
21214;DHT22;10764;50.850;2.904;2023-03-16T13:13:31;19.10;48.40
21214;DHT22;10764;50.850;2.904;2023-03-16T13:16:04;19.10;48.50
21214;DHT22;10764;50.850;2.904;2023-03-16T13:18:38;19.10;48.40
21214;DHT22;10764;50.850;2.904;2023-03-16T13:21:32;19.10;48.30
21214;DHT22;10764;50.850;2.904;2023-03-16T13:24:25;19.20;48.30
21214;DHT22;10764;50.850;2.904;2023-03-16T13:27:03;19.10;48.30
21214;DHT22;10764;50.850;2.904;2023-03-16T13:29:32;19.10;49.00
21214;DHT22;10764;50.850;2.904;2023-03-16T13:32:07;19.60;48.70
21214;DHT22;10764;50.850;2.904;2023-03-16T13:34:56;18.60;48.00
21214;DHT22;10764;50.850;2.904;2023-03-16T13:37:26;19.70;48.50
21214;DHT22;10764;50.850;2.904;2023-03-16T13:39:58;20.20;48.70
21214;DHT22;10764;50.850;2.904;2023-03-16T13:42:28;19.50;48.40
21214;DHT22;10764;50.850;2.904;2023-03-16T13:44:58;19.30;48.20
21214;DHT22;10764;50.850;2.904;2023-03-16T13:47:30;20.60;48.80
21214;DHT22;10764;50.850;2.904;2023-03-16T13:49:58;19.20;48.50
21214;DHT22;10764;50.850;2.904;2023-03-16T13:54:56;20.90;49.10
21214;DHT22;10764;50.850;2.904;2023-03-16T13:57:35;19.20;48.10
21214;DHT22;10764;50.850;2.904;2023-03-16T14:00:04;20.30;48.70
21214;DHT22;10764;50.850;2.904;2023-03-16T14:02:39;20.70;48.80
21214;DHT22;10764;50.850;2.904;2023-03-16T14:05:23;19.20;48.00
21214;DHT22;10764;50.850;2.904;2023-03-16T14:07:51;19.20;48.00
21214;DHT22;10764;50.850;2.904;2023-03-16T14:10:20;19.40;48.00
21214;DHT22;10764;50.850;2.904;2023-03-16T14:12:55;20.80;48.70
21214;DHT22;10764;50.850;2.904;2023-03-16T14:15:25;21.00;48.70
21214;DHT22;10764;50.850;2.904;2023-03-16T14:18:09;19.30;48.00
21214;DHT22;10764;50.850;2.904;2023-03-16T14:20:39;19.30;47.90
21214;DHT22;10764;50.850;2.904;2023-03-16T14:23:19;19.10;48.00
21214;DHT22;10764;50.850;2.904;2023-03-16T14:25:48;19.90;48.10
21214;DHT22;10764;50.850;2.904;2023-03-16T14:28:16;20.60;48.70
21214;DHT22;10764;50.850;2.904;2023-03-16T14:30:52;20.40;48.20
21214;DHT22;10764;50.850;2.904;2023-03-16T14:33:46;20.60;48.20
21214;DHT22;10764;50.850;2.904;2023-03-16T14:36:17;20.10;48.00
21214;DHT22;10764;50.850;2.904;2023-03-16T14:38:47;21.80;48.60
21214;DHT22;10764;50.850;2.904;2023-03-16T14:41:23;21.50;48.70
21214;DHT22;10764;50.850;2.904;2023-03-16T14:43:59;19.40;47.30
21214;DHT22;10764;50.850;2.904;2023-03-16T14:46:31;19.40;47.20
21214;DHT22;10764;50.850;2.904;2023-03-16T14:49:06;19.40;47.10
21214;DHT22;10764;50.850;2.904;2023-03-16T14:51:37;21.40;48.10
21214;DHT22;10764;50.850;2.904;2023-03-16T14:54:15;20.00;47.20
21214;DHT22;10764;50.850;2.904;2023-03-16T14:56:50;19.60;46.90
21214;DHT22;10764;50.850;2.904;2023-03-16T14:59:18;21.20;47.70
21214;DHT22;10764;50.850;2.904;2023-03-16T15:01:46;19.40;46.90
21214;DHT22;10764;50.850;2.904;2023-03-16T15:04:15;19.40;46.90
21214;DHT22;10764;50.850;2.904;2023-03-16T15:06:45;21.20;48.20
21214;DHT22;10764;50.850;2.904;2023-03-16T15:09:32;19.80;47.80
21214;DHT22;10764;50.850;2.904;2023-03-16T15:12:00;19.40;47.50
21214;DHT22;10764;50.850;2.904;2023-03-16T15:14:27;19.40;47.90
21214;DHT22;10764;50.850;2.904;2023-03-16T15:17:13;20.20;48.00
21214;DHT22;10764;50.850;2.904;2023-03-16T15:19:40;19.80;47.90
21214;DHT22;10764;50.850;2.904;2023-03-16T15:22:09;19.80;48.00
21214;DHT22;10764;50.850;2.904;2023-03-16T15:24:38;19.40;47.70
21214;DHT22;10764;50.850;2.904;2023-03-16T15:27:17;19.50;47.80
21214;DHT22;10764;50.850;2.904;2023-03-16T15:29:45;19.40;47.60
21214;DHT22;10764;50.850;2.904;2023-03-16T15:32:13;19.50;47.90
21214;DHT22;10764;50.850;2.904;2023-03-16T15:34:43;19.40;47.60
21214;DHT22;10764;50.850;2.904;2023-03-16T15:37:14;19.60;47.90
21214;DHT22;10764;50.850;2.904;2023-03-16T15:39:43;20.40;48.00
21214;DHT22;10764;50.850;2.904;2023-03-16T15:42:16;19.30;47.40
21214;DHT22;10764;50.850;2.904;2023-03-16T15:44:44;19.50;47.60
21214;DHT22;10764;50.850;2.904;2023-03-16T15:47:12;20.80;48.20
21214;DHT22;10764;50.850;2.904;2023-03-16T15:49:40;21.30;48.60
21214;DHT22;10764;50.850;2.904;2023-03-16T15:52:30;21.00;49.30
21214;DHT22;10764;50.850;2.904;2023-03-16T15:54:58;19.70;48.00
21214;DHT22;10764;50.850;2.904;2023-03-16T15:57:30;19.20;46.90
21214;DHT22;10764;50.850;2.904;2023-03-16T15:59:57;19.20;48.10
21214;DHT22;10764;50.850;2.904;2023-03-16T16:02:28;20.80;48.50
21214;DHT22;10764;50.850;2.904;2023-03-16T16:04:55;19.20;47.50
21214;DHT22;10764;50.850;2.904;2023-03-16T16:07:23;19.40;47.60
21214;DHT22;10764;50.850;2.904;2023-03-16T16:09:50;20.00;48.60
21214;DHT22;10764;50.850;2.904;2023-03-16T16:12:19;19.40;47.90
21214;DHT22;10764;50.850;2.904;2023-03-16T16:14:52;19.20;47.80
21214;DHT22;10764;50.850;2.904;2023-03-16T16:17:19;19.20;47.60
21214;DHT22;10764;50.850;2.904;2023-03-16T16:20:27;19.20;47.50
21214;DHT22;10764;50.850;2.904;2023-03-16T16:22:55;19.80;48.00
21214;DHT22;10764;50.850;2.904;2023-03-16T16:25:30;19.90;47.80
21214;DHT22;10764;50.850;2.904;2023-03-16T16:28:00;21.70;48.80
21214;DHT22;10764;50.850;2.904;2023-03-16T16:30:30;19.20;47.60
21214;DHT22;10764;50.850;2.904;2023-03-16T16:32:57;19.20;47.50
21214;DHT22;10764;50.850;2.904;2023-03-16T16:35:26;21.00;48.90
21214;DHT22;10764;50.850;2.904;2023-03-16T16:37:54;19.50;48.50
21214;DHT22;10764;50.850;2.904;2023-03-16T16:40:23;21.00;48.80
21214;DHT22;10764;50.850;2.904;2023-03-16T16:42:52;21.90;48.90
21214;DHT22;10764;50.850;2.904;2023-03-16T16:45:24;20.10;48.20
21214;DHT22;10764;50.850;2.904;2023-03-16T16:47:53;19.50;47.90
21214;DHT22;10764;50.850;2.904;2023-03-16T16:50:25;19.40;48.30
21214;DHT22;10764;50.850;2.904;2023-03-16T16:52:53;20.30;48.30
21214;DHT22;10764;50.850;2.904;2023-03-16T16:55:21;20.20;48.20
21214;DHT22;10764;50.850;2.904;2023-03-16T16:57:51;20.10;48.10